createdAt,value
2023-12-15T00:00:37.420Z,27.30
2023-12-15T00:03:04.313Z,26.70
2023-12-15T00:05:31.140Z,24.40
2023-12-15T00:07:58.076Z,30.70
2023-12-15T00:10:24.900Z,30.50
2023-12-15T00:12:51.729Z,31.20
2023-12-15T00:15:18.371Z,29.90
2023-12-15T00:17:45.781Z,30.70
2023-12-15T00:20:12.712Z,30.60
2023-12-15T00:22:39.457Z,28.90
2023-12-15T00:25:06.337Z,29.10
2023-12-15T00:27:33.045Z,30.00
2023-12-15T00:29:59.792Z,33.80
2023-12-15T00:32:26.588Z,31.60
2023-12-15T00:34:53.822Z,28.50
2023-12-15T00:37:20.940Z,34.70
2023-12-15T00:39:49.017Z,32.00
2023-12-15T00:42:16.171Z,34.40
2023-12-15T00:44:42.934Z,36.10
2023-12-15T00:47:10.217Z,32.70
2023-12-15T00:49:37.032Z,36.20
2023-12-15T00:52:04.597Z,34.20
2023-12-15T00:54:31.254Z,36.70
2023-12-15T00:56:58.498Z,37.50
2023-12-15T00:59:25.512Z,37.10
2023-12-15T01:01:52.328Z,36.90
2023-12-15T01:04:19.162Z,34.50
2023-12-15T01:06:46.000Z,34.70
2023-12-15T01:09:12.815Z,38.10
2023-12-15T01:11:39.611Z,44.80
2023-12-15T01:14:06.653Z,44.30
2023-12-15T01:16:33.590Z,43.10
2023-12-15T01:19:00.510Z,45.70
2023-12-15T01:21:27.437Z,50.40
2023-12-15T01:23:54.548Z,47.80
2023-12-15T01:26:21.329Z,53.50
2023-12-15T01:28:48.052Z,52.30
2023-12-15T01:31:14.901Z,49.60
2023-12-15T01:33:41.577Z,54.20
2023-12-15T01:36:08.934Z,52.00
2023-12-15T01:38:35.791Z,49.70
2023-12-15T01:41:03.180Z,53.40
2023-12-15T01:43:30.095Z,48.80
2023-12-15T01:46:05.056Z,43.80
2023-12-15T01:48:36.008Z,42.20
2023-12-15T01:51:03.756Z,46.10
2023-12-15T01:53:30.715Z,42.40
2023-12-15T01:55:57.592Z,42.20
2023-12-15T01:58:24.337Z,43.90
2023-12-15T02:00:51.287Z,44.70
2023-12-15T02:03:18.222Z,46.80
2023-12-15T02:05:45.067Z,40.60
2023-12-15T02:08:12.030Z,47.20
2023-12-15T02:10:39.321Z,44.20
2023-12-15T02:13:07.360Z,48.10
2023-12-15T02:15:34.162Z,45.10
2023-12-15T02:18:01.241Z,41.70
2023-12-15T02:20:28.503Z,45.50
2023-12-15T02:22:55.629Z,44.90
2023-12-15T02:25:22.371Z,47.60
2023-12-15T02:27:49.210Z,44.10
2023-12-15T02:30:15.999Z,44.80
2023-12-15T02:32:42.906Z,41.70
2023-12-15T02:35:10.027Z,46.60
2023-12-15T02:37:37.409Z,48.00
2023-12-15T02:40:06.653Z,51.10
2023-12-15T02:42:34.113Z,44.20
2023-12-15T02:45:04.552Z,48.20
2023-12-15T02:47:31.583Z,46.30
2023-12-15T02:49:58.507Z,48.40
2023-12-15T02:52:25.324Z,45.40
2023-12-15T02:54:52.176Z,45.00
2023-12-15T02:57:18.926Z,48.00
2023-12-15T02:59:46.513Z,47.00
2023-12-15T03:02:13.285Z,45.80
2023-12-15T03:04:40.179Z,43.60
2023-12-15T03:07:07.160Z,47.50
2023-12-15T03:09:34.347Z,46.80
2023-12-15T03:12:01.069Z,45.30
2023-12-15T03:14:28.198Z,48.40
2023-12-15T03:16:55.055Z,52.60
2023-12-15T03:19:22.018Z,55.50
2023-12-15T03:21:49.001Z,53.90
2023-12-15T03:24:15.728Z,55.50
2023-12-15T03:26:42.378Z,61.50
2023-12-15T03:29:09.301Z,55.10
2023-12-15T03:31:36.291Z,57.60
2023-12-15T03:34:03.067Z,66.00
2023-12-15T03:36:30.103Z,61.80
2023-12-15T03:38:56.846Z,60.20
2023-12-15T03:41:23.866Z,61.00
2023-12-15T03:43:50.759Z,57.70
2023-12-15T03:46:17.527Z,60.40
2023-12-15T03:48:44.457Z,56.90
2023-12-15T03:51:11.426Z,62.80
2023-12-15T03:53:38.663Z,65.80
2023-12-15T03:56:06.486Z,70.40
2023-12-15T03:58:33.735Z,64.60
2023-12-15T04:01:00.715Z,67.50
2023-12-15T04:03:27.761Z,67.20
2023-12-15T04:05:54.675Z,73.00
2023-12-15T04:08:21.734Z,70.60
2023-12-15T04:10:48.436Z,69.00
2023-12-15T04:13:15.401Z,72.90
2023-12-15T04:15:42.134Z,73.00
2023-12-15T04:18:09.165Z,73.00
2023-12-15T04:20:36.074Z,82.40
2023-12-15T04:23:03.034Z,71.70
2023-12-15T04:25:30.177Z,66.30
2023-12-15T04:27:57.012Z,63.80
2023-12-15T04:30:24.403Z,56.10
2023-12-15T04:32:51.246Z,58.70
2023-12-15T04:35:18.256Z,55.20
2023-12-15T04:37:45.026Z,50.90
2023-12-15T04:40:12.751Z,46.10
2023-12-15T04:42:39.453Z,48.60
2023-12-15T04:45:08.854Z,47.50
2023-12-15T04:47:36.492Z,50.30
2023-12-15T04:50:04.798Z,55.80
2023-12-15T04:52:31.699Z,54.80
2023-12-15T04:54:59.325Z,56.10
2023-12-15T04:57:26.320Z,46.10
2023-12-15T04:59:52.951Z,53.40
2023-12-15T05:02:19.997Z,50.40
2023-12-15T05:04:46.867Z,54.40
2023-12-15T05:07:14.143Z,56.50
2023-12-15T05:09:40.887Z,54.50
2023-12-15T05:12:07.876Z,56.10
2023-12-15T05:14:34.814Z,56.20
2023-12-15T05:17:01.701Z,55.30
2023-12-15T05:19:28.475Z,57.00
2023-12-15T05:21:55.209Z,55.10
2023-12-15T05:24:22.237Z,54.90
2023-12-15T05:26:48.970Z,56.00
2023-12-15T05:29:16.327Z,53.30
2023-12-15T05:31:45.349Z,57.10
2023-12-15T05:34:12.850Z,53.90
2023-12-15T05:36:39.854Z,56.20
2023-12-15T05:39:07.518Z,54.40
2023-12-15T05:41:34.463Z,53.40
2023-12-15T05:44:01.940Z,44.80
2023-12-15T05:46:28.676Z,43.00
2023-12-15T05:48:56.026Z,40.30
2023-12-15T05:51:23.289Z,44.80
2023-12-15T05:53:55.729Z,41.50
2023-12-15T05:56:25.390Z,37.50
2023-12-15T05:58:52.456Z,33.00
2023-12-15T06:01:19.266Z,34.40
2023-12-15T06:03:46.157Z,36.90
2023-12-15T06:06:13.878Z,36.00
2023-12-15T06:08:41.386Z,32.40
2023-12-15T06:11:08.286Z,33.60
2023-12-15T06:13:35.060Z,35.30
2023-12-15T06:16:02.264Z,36.40
2023-12-15T06:18:29.213Z,31.10
2023-12-15T06:20:56.037Z,35.10
2023-12-15T06:23:22.829Z,33.50
2023-12-15T06:25:49.643Z,34.20
2023-12-15T06:28:16.380Z,34.10
2023-12-15T06:30:43.737Z,37.40
2023-12-15T06:33:10.906Z,34.30
2023-12-15T06:35:37.681Z,33.10
2023-12-15T06:38:04.624Z,29.00
2023-12-15T06:40:31.578Z,29.00
2023-12-15T06:42:58.689Z,30.70
2023-12-15T06:45:25.426Z,35.10
2023-12-15T06:47:52.341Z,37.60
2023-12-15T06:50:19.161Z,34.20
2023-12-15T06:52:45.979Z,32.00
2023-12-15T06:55:12.723Z,38.20
2023-12-15T06:57:39.972Z,32.20
2023-12-15T07:00:07.651Z,32.10
2023-12-15T07:02:34.868Z,33.70
2023-12-15T07:05:02.252Z,31.30
2023-12-15T07:07:29.217Z,34.30
2023-12-15T07:09:55.885Z,31.70
2023-12-15T07:12:22.732Z,34.20
2023-12-15T07:14:49.589Z,36.50
2023-12-15T07:17:16.556Z,34.40
2023-12-15T07:19:43.387Z,34.00
2023-12-15T07:22:10.446Z,32.40
2023-12-15T07:24:37.581Z,30.00
2023-12-15T07:27:04.744Z,28.30
2023-12-15T07:29:31.425Z,30.90
2023-12-15T07:31:58.251Z,25.90
2023-12-15T07:34:25.284Z,26.80
2023-12-15T07:36:52.304Z,28.90
2023-12-15T07:39:19.070Z,43.20
2023-12-15T07:41:46.229Z,30.90
2023-12-15T07:44:13.126Z,31.90
2023-12-15T07:46:40.125Z,29.70
2023-12-15T07:49:06.974Z,34.80
2023-12-15T07:51:33.845Z,38.80
2023-12-15T07:54:01.100Z,34.60
2023-12-15T07:56:29.925Z,32.90
2023-12-15T07:58:57.832Z,27.50
2023-12-15T08:01:25.625Z,26.60
2023-12-15T08:03:52.903Z,25.70
2023-12-15T08:06:20.633Z,28.30
2023-12-15T08:08:48.392Z,27.70
2023-12-15T08:11:16.010Z,27.50
2023-12-15T08:13:43.544Z,23.40
2023-12-15T08:16:14.249Z,28.20
2023-12-15T08:18:42.422Z,20.80
2023-12-15T08:21:09.333Z,26.70
2023-12-15T08:23:36.299Z,24.80
2023-12-15T08:26:03.066Z,25.90
2023-12-15T08:28:30.098Z,27.30
2023-12-15T08:30:56.854Z,21.50
2023-12-15T08:33:23.609Z,20.90
2023-12-15T08:35:50.656Z,19.70
2023-12-15T08:38:17.566Z,21.00
2023-12-15T08:40:44.530Z,18.90
2023-12-15T08:43:11.499Z,24.60
2023-12-15T08:45:38.183Z,21.10
2023-12-15T08:48:05.168Z,18.80
2023-12-15T08:50:32.312Z,16.70
2023-12-15T08:52:59.417Z,18.50
2023-12-15T08:55:26.620Z,20.00
2023-12-15T08:57:53.528Z,22.80
2023-12-15T09:00:20.340Z,15.60
2023-12-15T09:02:47.087Z,14.60
2023-12-15T09:05:24.819Z,16.30
2023-12-15T09:08:01.560Z,19.80
2023-12-15T09:10:29.586Z,17.30
2023-12-15T09:12:56.311Z,20.10
2023-12-15T09:15:23.058Z,19.40
2023-12-15T09:17:50.332Z,19.10
2023-12-15T09:20:17.721Z,15.10
2023-12-15T09:22:44.472Z,20.80
2023-12-15T09:25:11.217Z,17.30
2023-12-15T09:27:38.042Z,15.50
2023-12-15T09:30:05.576Z,20.90
2023-12-15T09:32:33.186Z,23.50
2023-12-15T09:35:00.386Z,21.00
2023-12-15T09:37:27.249Z,25.10
2023-12-15T09:39:54.198Z,17.30
2023-12-15T09:42:21.147Z,22.70
2023-12-15T09:44:57.345Z,21.50
2023-12-15T09:47:32.867Z,19.20
2023-12-15T09:50:05.478Z,21.60
2023-12-15T09:52:33.027Z,19.80
2023-12-15T09:55:01.196Z,19.00
2023-12-15T09:57:28.572Z,24.60
2023-12-15T09:59:55.258Z,22.30
2023-12-15T10:02:22.013Z,20.80
2023-12-15T10:04:48.599Z,21.60
2023-12-15T10:07:16.057Z,22.90
2023-12-15T10:09:42.805Z,21.30
2023-12-15T10:12:10.982Z,17.50
2023-12-15T10:14:39.229Z,20.80
2023-12-15T10:17:12.958Z,20.40
2023-12-15T10:19:40.181Z,23.70
2023-12-15T10:22:08.286Z,26.70
2023-12-15T10:24:36.088Z,27.40
2023-12-15T10:27:03.138Z,27.40
2023-12-15T10:29:29.936Z,24.10
2023-12-15T10:31:56.720Z,17.50
2023-12-15T10:34:25.488Z,20.30
2023-12-15T10:36:53.711Z,18.50
2023-12-15T10:39:21.345Z,22.00
2023-12-15T10:41:48.055Z,21.40
2023-12-15T10:44:15.754Z,20.80
2023-12-15T10:46:45.181Z,18.50
2023-12-15T10:49:13.141Z,21.90
2023-12-15T10:51:42.987Z,19.30
2023-12-15T10:54:10.229Z,22.00
2023-12-15T10:56:38.533Z,29.30
2023-12-15T10:59:06.723Z,28.60
2023-12-15T11:01:36.305Z,23.90
2023-12-15T11:04:03.125Z,24.00
2023-12-15T11:06:33.780Z,33.00
2023-12-15T11:09:02.679Z,23.50
2023-12-15T11:11:30.952Z,26.20
2023-12-15T11:14:02.850Z,21.40
2023-12-15T11:16:31.057Z,20.20
2023-12-15T11:18:59.638Z,17.70
2023-12-15T11:21:27.389Z,21.70
2023-12-15T11:23:58.669Z,41.10
2023-12-15T11:26:31.030Z,22.90
2023-12-15T11:29:07.301Z,42.90
2023-12-15T11:31:35.448Z,23.40
2023-12-15T11:34:05.590Z,22.60
2023-12-15T11:36:41.354Z,23.70
2023-12-15T11:39:08.596Z,25.40
2023-12-15T11:41:35.619Z,23.60
2023-12-15T11:44:02.538Z,22.30
2023-12-15T11:46:29.346Z,21.90
2023-12-15T11:48:56.276Z,21.20
2023-12-15T11:51:24.486Z,19.40
2023-12-15T11:53:51.123Z,21.40
2023-12-15T11:56:18.713Z,17.00
2023-12-15T11:58:46.755Z,15.50
2023-12-15T12:01:14.300Z,17.60
2023-12-15T12:03:41.196Z,17.80
2023-12-15T12:06:08.512Z,18.20
2023-12-15T12:08:36.433Z,22.40
2023-12-15T12:11:04.931Z,19.40
2023-12-15T12:13:34.524Z,19.60
2023-12-15T12:16:02.004Z,22.00
2023-12-15T12:18:30.646Z,29.90
2023-12-15T12:21:07.830Z,27.50
2023-12-15T12:23:42.871Z,31.30
2023-12-15T12:26:14.332Z,32.60
2023-12-15T12:28:44.115Z,30.40
2023-12-15T12:31:10.846Z,28.30
2023-12-15T12:33:37.751Z,25.70
2023-12-15T12:36:05.153Z,29.90
2023-12-15T12:38:32.006Z,26.20
2023-12-15T12:40:58.757Z,24.90
2023-12-15T12:43:25.774Z,22.70
2023-12-15T12:45:52.452Z,24.20
2023-12-15T12:48:19.422Z,23.80
2023-12-15T12:50:46.252Z,21.90
2023-12-15T12:53:13.269Z,24.50
2023-12-15T12:55:40.088Z,20.20
2023-12-15T12:58:06.867Z,20.60
2023-12-15T13:00:34.125Z,23.60
2023-12-15T13:03:01.130Z,26.20
2023-12-15T13:05:27.999Z,25.10
2023-12-15T13:07:55.219Z,21.70
2023-12-15T13:10:22.608Z,22.20
2023-12-15T13:12:49.758Z,28.50
2023-12-15T13:15:16.466Z,26.00
2023-12-15T13:17:43.586Z,28.70
2023-12-15T13:20:10.577Z,25.40
2023-12-15T13:22:47.240Z,24.60
2023-12-15T13:25:15.403Z,26.10
2023-12-15T13:27:42.111Z,26.00
2023-12-15T13:30:09.772Z,23.60
2023-12-15T13:32:37.495Z,19.90
2023-12-15T13:35:05.379Z,14.80
2023-12-15T13:37:32.296Z,16.50
2023-12-15T13:39:59.165Z,19.20
2023-12-15T13:42:26.061Z,17.90
2023-12-15T13:44:52.753Z,18.60
2023-12-15T13:47:19.524Z,17.40
2023-12-15T13:49:46.610Z,20.90
2023-12-15T13:52:13.975Z,20.90
2023-12-15T13:54:41.076Z,20.30
2023-12-15T13:57:07.966Z,24.70
2023-12-15T13:59:34.843Z,26.80
2023-12-15T14:02:01.728Z,32.80
2023-12-15T14:04:28.781Z,30.40
2023-12-15T14:06:55.767Z,28.10
2023-12-15T14:09:22.508Z,31.00
2023-12-15T14:11:49.245Z,32.70
2023-12-15T14:14:16.306Z,34.20
2023-12-15T14:16:47.361Z,34.50
2023-12-15T14:19:18.657Z,50.30
2023-12-15T14:21:46.414Z,41.80
2023-12-15T14:24:13.243Z,45.60
2023-12-15T14:26:40.653Z,60.50
2023-12-15T14:29:07.600Z,45.70
2023-12-15T14:31:34.313Z,40.40
2023-12-15T14:34:01.179Z,46.40
2023-12-15T14:36:27.999Z,43.40
2023-12-15T14:38:55.305Z,37.80
2023-12-15T14:41:22.023Z,44.40
2023-12-15T14:43:48.687Z,45.90
2023-12-15T14:46:15.914Z,46.10
2023-12-15T14:48:42.992Z,46.20
2023-12-15T14:51:10.370Z,44.80
2023-12-15T14:53:37.416Z,37.40
2023-12-15T14:56:04.850Z,42.40
2023-12-15T14:58:31.830Z,33.60
2023-12-15T15:00:59.055Z,39.90
2023-12-15T15:03:25.740Z,32.30
2023-12-15T15:05:52.491Z,32.40
2023-12-15T15:08:19.507Z,32.20
2023-12-15T15:10:46.236Z,53.60
2023-12-15T15:13:12.790Z,40.10
2023-12-15T15:15:39.659Z,41.10
2023-12-15T15:18:07.220Z,44.20
2023-12-15T15:20:34.121Z,41.70
2023-12-15T15:23:00.906Z,37.60
2023-12-15T15:25:27.727Z,35.50
2023-12-15T15:27:54.797Z,41.90
2023-12-15T15:30:22.924Z,42.60
2023-12-15T15:32:50.752Z,45.40
2023-12-15T15:35:17.925Z,47.20
2023-12-15T15:37:45.055Z,51.00
2023-12-15T15:40:12.676Z,46.40
2023-12-15T15:42:39.617Z,48.70
2023-12-15T15:45:06.941Z,45.40
2023-12-15T15:47:33.705Z,44.80
2023-12-15T15:50:00.444Z,45.20
2023-12-15T15:52:27.109Z,50.20
2023-12-15T15:54:54.193Z,54.70
2023-12-15T15:57:21.003Z,45.50
2023-12-15T15:59:47.753Z,48.60
2023-12-15T16:02:14.896Z,48.10
2023-12-15T16:04:41.797Z,47.20
2023-12-15T16:07:09.177Z,41.60
2023-12-15T16:09:35.879Z,40.70
2023-12-15T16:12:03.541Z,35.70
2023-12-15T16:14:30.241Z,35.90
2023-12-15T16:16:57.349Z,37.10
2023-12-15T16:19:23.978Z,38.60
2023-12-15T16:21:50.941Z,33.70
2023-12-15T16:24:17.962Z,34.10
2023-12-15T16:26:45.999Z,37.80
2023-12-15T16:29:12.649Z,36.20
2023-12-15T16:31:39.678Z,35.00
2023-12-15T16:34:06.552Z,39.70
2023-12-15T16:36:33.503Z,38.50
2023-12-15T16:39:00.244Z,41.80
2023-12-15T16:41:28.653Z,38.90
2023-12-15T16:43:55.718Z,39.40
2023-12-15T16:46:22.657Z,36.30
2023-12-15T16:48:49.464Z,40.30
2023-12-15T16:51:16.258Z,39.40
2023-12-15T16:53:42.994Z,33.80
2023-12-15T16:56:10.047Z,32.80
2023-12-15T16:58:36.905Z,35.50
2023-12-15T17:01:04.223Z,37.10
2023-12-15T17:03:31.421Z,31.70
2023-12-15T17:05:58.683Z,32.40
2023-12-15T17:08:25.880Z,32.90
2023-12-15T17:10:55.528Z,36.60
2023-12-15T17:13:22.181Z,35.90
2023-12-15T17:15:48.876Z,44.00
2023-12-15T17:18:18.638Z,36.90
2023-12-15T17:20:45.390Z,35.80
2023-12-15T17:23:12.038Z,32.80
2023-12-15T17:25:38.891Z,35.70
2023-12-15T17:28:05.544Z,34.90
2023-12-15T17:34:40.101Z,35.40
2023-12-15T17:39:58.987Z,31.30
2023-12-15T17:45:39.051Z,38.70
2023-12-15T17:48:06.142Z,42.50
2023-12-15T17:51:24.797Z,38.60
2023-12-15T17:53:51.755Z,40.30
2023-12-15T17:56:19.310Z,45.20
2023-12-15T17:58:45.957Z,45.70
2023-12-15T18:01:12.694Z,60.30
2023-12-15T18:03:39.535Z,51.50
2023-12-15T18:06:07.664Z,51.40
2023-12-15T18:08:34.575Z,50.30
2023-12-15T18:11:01.426Z,43.70
2023-12-15T18:13:28.169Z,41.20
2023-12-15T18:15:55.043Z,34.20
2023-12-15T18:18:21.672Z,30.10
2023-12-15T18:20:48.516Z,32.90
2023-12-15T18:23:15.377Z,35.10
2023-12-15T18:25:43.456Z,41.20
2023-12-15T18:28:16.825Z,40.10
2023-12-15T18:30:49.749Z,41.30
2023-12-15T18:33:16.630Z,35.70
2023-12-15T18:35:43.738Z,38.40
2023-12-15T18:38:10.956Z,36.40
2023-12-15T18:40:37.674Z,37.50
2023-12-15T18:43:04.826Z,40.30
2023-12-15T18:45:31.900Z,42.80
2023-12-15T18:47:58.721Z,43.20
2023-12-15T18:50:25.648Z,37.10
2023-12-15T18:52:52.610Z,101.80
2023-12-15T18:55:19.724Z,105.40
2023-12-15T18:57:51.775Z,224.80
2023-12-15T19:00:22.353Z,173.40
2023-12-15T19:02:50.952Z,126.90
2023-12-15T19:05:19.990Z,111.60
2023-12-15T19:07:46.809Z,116.60
2023-12-15T19:10:14.298Z,91.60
2023-12-15T19:12:43.208Z,61.70
2023-12-15T19:15:11.194Z,52.30
2023-12-15T19:17:39.160Z,60.60
2023-12-15T19:20:07.174Z,49.70
2023-12-15T19:22:34.355Z,63.30
2023-12-15T19:25:01.392Z,58.70
2023-12-15T19:27:28.490Z,59.50
2023-12-15T19:29:55.306Z,73.30
2023-12-15T19:32:22.069Z,64.60
2023-12-15T19:34:50.053Z,57.60
2023-12-15T19:37:16.940Z,56.80
2023-12-15T19:39:43.835Z,38.20
2023-12-15T19:42:10.595Z,58.50
2023-12-15T19:44:37.533Z,42.90
2023-12-15T19:47:05.444Z,42.30
2023-12-15T19:49:32.681Z,36.60
2023-12-15T19:51:59.694Z,41.00
2023-12-15T19:54:26.673Z,38.30
2023-12-15T19:56:53.619Z,42.50
2023-12-15T19:59:23.777Z,50.10
2023-12-15T20:01:51.724Z,40.70
2023-12-15T20:04:18.910Z,34.90
2023-12-15T20:06:46.361Z,38.90
2023-12-15T20:09:13.313Z,37.20
2023-12-15T20:11:40.616Z,35.90
2023-12-15T20:14:07.942Z,38.30
2023-12-15T20:16:35.858Z,41.50
2023-12-15T20:19:03.147Z,38.10
2023-12-15T20:21:31.116Z,43.00
2023-12-15T20:23:57.992Z,42.90
2023-12-15T20:26:25.339Z,37.50
2023-12-15T20:28:52.215Z,47.80
2023-12-15T20:31:19.111Z,66.50
2023-12-15T20:33:47.421Z,96.80
2023-12-15T20:36:21.488Z,109.00
2023-12-15T20:38:49.026Z,98.40
2023-12-15T20:41:20.767Z,90.00
2023-12-15T20:43:49.053Z,104.90
2023-12-15T20:46:16.343Z,81.20
2023-12-15T20:48:43.639Z,81.00
2023-12-15T20:51:10.858Z,91.70
2023-12-15T20:53:37.685Z,88.10
2023-12-15T20:56:05.411Z,111.10
2023-12-15T20:58:32.752Z,122.90
2023-12-15T21:00:59.990Z,129.90
2023-12-15T21:03:26.937Z,111.60
2023-12-15T21:05:53.831Z,99.70
2023-12-15T21:08:20.777Z,101.10
2023-12-15T21:10:47.782Z,101.80
2023-12-15T21:13:14.659Z,83.90
2023-12-15T21:15:41.708Z,92.10
2023-12-15T21:18:08.586Z,107.40
2023-12-15T21:20:35.880Z,117.30
2023-12-15T21:23:02.531Z,134.90
2023-12-15T21:25:30.792Z,134.80
2023-12-15T21:27:57.485Z,132.10
2023-12-15T21:30:24.567Z,122.80
2023-12-15T21:32:51.386Z,115.80
2023-12-15T21:35:18.134Z,106.60
2023-12-15T21:37:44.863Z,113.00
2023-12-15T21:40:12.186Z,114.40
2023-12-15T21:42:39.970Z,118.40
2023-12-15T21:45:07.025Z,108.50
2023-12-15T21:47:33.997Z,116.70
2023-12-15T21:50:01.923Z,87.10
2023-12-15T21:52:28.634Z,84.10
2023-12-15T21:54:55.951Z,84.70
2023-12-15T21:57:22.648Z,75.70
2023-12-15T21:59:49.310Z,130.60
2023-12-15T22:02:16.139Z,154.60
2023-12-15T22:04:42.970Z,130.40
2023-12-15T22:07:09.781Z,162.10
2023-12-15T22:09:36.594Z,166.50
2023-12-15T22:12:03.446Z,157.10
2023-12-15T22:14:36.012Z,152.90
2023-12-15T22:17:09.240Z,162.50
2023-12-15T22:19:36.128Z,166.10
2023-12-15T22:22:02.855Z,175.30
2023-12-15T22:24:29.773Z,189.60
2023-12-15T22:26:56.480Z,178.60
2023-12-15T22:29:23.277Z,177.80
2023-12-15T22:31:50.153Z,207.80
2023-12-15T22:34:17.259Z,205.20
2023-12-15T22:36:44.234Z,245.80
2023-12-15T22:39:11.006Z,238.20
2023-12-15T22:41:38.357Z,188.30
2023-12-15T22:44:05.206Z,133.60
2023-12-15T22:46:32.040Z,146.60
2023-12-15T22:48:59.281Z,133.60
2023-12-15T22:51:26.197Z,147.60
2023-12-15T22:53:52.850Z,168.20
2023-12-15T22:56:19.601Z,173.10
2023-12-15T22:58:46.312Z,169.60
2023-12-15T23:01:13.294Z,183.20
2023-12-15T23:03:40.794Z,173.90
2023-12-15T23:06:08.240Z,155.70
2023-12-15T23:08:35.104Z,273.10
2023-12-15T23:11:01.922Z,209.30
2023-12-15T23:13:28.671Z,153.70
2023-12-15T23:15:55.596Z,147.10
2023-12-15T23:18:22.549Z,135.90
2023-12-15T23:20:49.381Z,157.90
2023-12-15T23:23:16.122Z,155.80
2023-12-15T23:25:42.779Z,165.60
2023-12-15T23:28:09.695Z,161.20
2023-12-15T23:30:36.476Z,173.40
2023-12-15T23:33:03.286Z,191.70
2023-12-15T23:35:30.093Z,167.40
2023-12-15T23:37:56.849Z,213.80
2023-12-15T23:40:23.637Z,201.20
2023-12-15T23:42:50.576Z,192.70
2023-12-15T23:45:17.386Z,166.70
2023-12-15T23:47:44.340Z,147.60
2023-12-15T23:50:11.709Z,140.30
2023-12-15T23:52:38.780Z,148.80
2023-12-15T23:55:06.359Z,144.60
2023-12-15T23:57:33.890Z,122.60
